Aspen (ASE/KASE)

Map

Destinations

Information

Location
Aspen, CO
Local Time
19:53 / 7:53 pm
GMT Time
01:53 / 1:53 am
Gates
Unassigned
No FAA reported delays
METAR KASE 270053Z 36009KT 10SM CLR 27/M07 A3025 RMK AO2 SLP114 T02671072
TAF KASE 270117Z 2701/2724 36009KT P6SM SKC FM270300 19006KT P6SM SCT200 FM271600 27009KT P6SM FEW200 FM271800 35013G26KT P6SM SCT250